Delmar, NY

8:07 PM EDT on September 18, 2014 (GMT -0400)
Albany International | Change Station
CLOSE
Current Station
Airport
Location: Albany,
Elevation: 292 ft
Nearby Weather Stations

Elev 292 ft 42.75 °N, 73.80 °W | Updated 16 minutes ago

Partly Cloudy
Partly Cloudy
53 °F
Feels Like 53 °F
N
8
Wind Variable Wind from North

Today
High -- | Low -- °F
--% Chance of Precip.
Yesterday
High -- | Low -- °F
Precip. -- in
6:38 AM 6:59 PM
Waning Crescent, 23% visible
Pressure 30.12 in
Visibility 10.0 miles
Clouds Few 5500 ft
Scattered Clouds 10000 ft
Dew Point 46 °F
Humidity 77%
Rainfall 0.00 in
Snow Depth Not available.
UV 0 out of 12
Pollen 2.90 out of 12
PM2.5 Good
Flu Activity Not available.
METAR KALB 182351Z 01007KT 10SM FEW055 SCT100 12/08 A3011 RMK AO2 SLP198 FEW V SCT 60000 T01170078 10217 20117 53028

More Conditions Fewer Conditions

Pressure 30.12 in
Visibility 10.0 miles
Clouds Few 5500 ft
Scattered Clouds 10000 ft
Dew Point 46 °F
Humidity 77%
Rainfall 0.00 in
Snow Depth Not available.
UV 0 out of 12
Pollen 2.90 out of 12
PM2.5 Good
Flu Activity Not available.
METAR KALB 182351Z 01007KT 10SM FEW055 SCT100 12/08 A3011 RMK AO2 SLP198 FEW V SCT 60000 T01170078 10217 20117 53028

More Conditions Fewer Conditions

10-Day Weather Forecast

Almanac

Astronomy

Sep. 18, 2014 Rise Set
Actual Time 6:38 AM EDT 6:59 PM EDT
Civil Twilight 6:10 AM EDT 7:28 PM EDT
Nautical Twilight 5:36 AM EDT 8:01 PM EDT
Astronomical Twilight 5:02 AM EDT 8:35 PM EDT
Moon 1:22 AM EDT (9/18) 3:54 PM EDT (9/18)
Length of Visible Light 13h 17m
Length of Day
12h 21m
Tomorrow will be 2m 51s shorter.
Waning Crescent, 23% of the Moon is Illuminated
Today
Waning Crescent
Sep 24
New
Oct 1
First Quarter
Oct 8
Full
Oct 15
Last Quarter

Today's Extremes

State Highs State Lows

Community

WunderPhotos

Upload Photos

1,754,500 photos uploaded!

WunderBlogs® & News

Nearby

Air Quality

  Air Quality AQ Index Pollutant
Yesterday Good
OZONE
Yesterday Good
PM2.5
Current Good
PM2.5
Thursday Good
OZONE
Thursday Good
PM2.5
Friday Good
OZONE
Friday Good
PM2.5

Snow Depth

Station Depth Elevation
No new snow has been reported.

Earthquake Activity

City Distance Mag. Time & Date
No recent earthquake activity has been reported nearby.
Minimum magnitude displayed is 2.5.

Coastal Water Temperatures

Place Temperature
No Stations Reporting

Nearby Weather Stations